createdAt,value
2024-04-30T00:01:17.787Z,2.72
2024-04-30T00:04:04.794Z,3.15
2024-04-30T00:06:45.053Z,2.95
2024-04-30T00:09:31.641Z,2.85
2024-04-30T00:12:25.633Z,2.50
2024-04-30T00:15:06.596Z,2.73
2024-04-30T00:17:53.648Z,3.25
2024-04-30T00:20:34.057Z,2.97
2024-04-30T00:23:20.625Z,2.60
2024-04-30T00:26:07.643Z,2.95
2024-04-30T00:28:47.727Z,2.95
2024-04-30T00:31:34.682Z,3.08
2024-04-30T00:34:21.639Z,3.17
2024-04-30T00:37:08.608Z,3.00
2024-04-30T00:39:48.797Z,3.10
2024-04-30T00:42:36.622Z,3.50
2024-04-30T00:45:16.732Z,3.80
2024-04-30T00:48:03.682Z,4.38
2024-04-30T00:50:47.735Z,5.82
2024-04-30T00:53:34.605Z,6.32
2024-04-30T00:56:22.571Z,6.72
2024-04-30T00:59:09.605Z,6.75
2024-04-30T01:01:49.782Z,6.65
2024-04-30T01:04:36.654Z,6.43
2024-04-30T01:07:16.743Z,6.22
2024-04-30T01:10:03.608Z,6.70
2024-04-30T01:12:51.740Z,6.47
2024-04-30T01:15:31.550Z,6.60
2024-04-30T01:18:11.950Z,10.02
2024-04-30T01:20:58.579Z,10.70
2024-04-30T01:23:39.064Z,9.23
2024-04-30T01:26:25.540Z,9.20
2024-04-30T01:29:06.000Z,8.95
2024-04-30T01:31:52.575Z,9.20
2024-04-30T01:34:33.006Z,9.73
2024-04-30T01:37:19.627Z,9.35
2024-04-30T01:39:59.932Z,9.40
2024-04-30T01:42:46.541Z,10.40
2024-04-30T01:45:27.079Z,8.98
2024-04-30T01:48:20.631Z,8.80
2024-04-30T01:51:00.972Z,9.10
2024-04-30T01:53:47.503Z,8.13
2024-04-30T01:56:27.943Z,8.13
2024-04-30T01:59:14.514Z,7.90
2024-04-30T02:01:55.050Z,8.52
2024-04-30T02:04:48.796Z,7.32
2024-04-30T02:07:32.969Z,8.15
2024-04-30T02:10:19.681Z,7.82
2024-04-30T02:13:13.532Z,6.97
2024-04-30T02:15:53.918Z,7.23
2024-04-30T02:18:40.479Z,6.40
2024-04-30T02:21:20.976Z,6.55
2024-04-30T02:24:07.487Z,6.70
2024-04-30T02:26:47.866Z,5.78
2024-04-30T02:29:34.495Z,5.97
2024-04-30T02:32:50.354Z,6.95
2024-04-30T02:35:37.507Z,6.43
2024-04-30T02:38:17.867Z,5.15
2024-04-30T02:41:04.443Z,6.45
2024-04-30T02:43:44.925Z,6.85
2024-04-30T02:46:38.550Z,6.38
2024-04-30T02:49:18.914Z,7.77
2024-04-30T02:52:05.534Z,6.68
2024-04-30T02:54:45.829Z,4.72
2024-04-30T02:57:32.453Z,4.97
2024-04-30T03:00:13.525Z,4.95
2024-04-30T03:03:00.548Z,4.88
2024-04-30T03:05:40.909Z,5.10
2024-04-30T03:08:27.458Z,4.57
2024-04-30T03:11:21.494Z,5.13
2024-04-30T03:14:08.445Z,5.17
2024-04-30T03:16:49.516Z,5.28
2024-04-30T03:19:36.462Z,5.85
2024-04-30T03:22:16.571Z,5.20
2024-04-30T03:25:03.424Z,4.78
2024-04-30T03:27:43.495Z,5.75
2024-04-30T03:30:30.402Z,5.00
2024-04-30T03:33:17.590Z,4.93
2024-04-30T03:35:57.413Z,4.30
2024-04-30T03:38:47.537Z,4.47
2024-04-30T03:41:27.423Z,4.38
2024-04-30T03:44:14.552Z,4.22
2024-04-30T03:47:01.549Z,4.25
2024-04-30T03:49:48.396Z,4.72
2024-04-30T03:52:28.824Z,4.50
2024-04-30T03:55:15.420Z,4.38
2024-04-30T03:58:02.467Z,4.10
2024-04-30T04:00:49.387Z,4.57
2024-04-30T04:03:29.865Z,4.50
2024-04-30T04:06:17.757Z,4.57
2024-04-30T04:09:05.492Z,4.90
2024-04-30T04:12:17.433Z,5.20
2024-04-30T04:15:04.331Z,4.40
2024-04-30T04:17:44.580Z,6.20
2024-04-30T04:20:31.369Z,4.20
2024-04-30T04:23:18.370Z,4.10
2024-04-30T04:25:58.732Z,4.00
2024-04-30T04:28:45.315Z,4.45
2024-04-30T04:31:32.489Z,4.00
2024-04-30T04:34:19.454Z,4.32
2024-04-30T04:37:00.538Z,5.25
2024-04-30T04:39:40.758Z,3.70
2024-04-30T04:42:27.338Z,3.88
2024-04-30T04:45:07.869Z,3.10
2024-04-30T04:48:01.363Z,3.90
2024-04-30T04:50:42.866Z,3.40
2024-04-30T04:53:30.449Z,3.47
2024-04-30T04:56:17.440Z,4.63
2024-04-30T04:58:57.367Z,3.60
2024-04-30T05:01:37.799Z,4.80
2024-04-30T05:04:24.409Z,4.60
2024-04-30T05:07:11.331Z,4.40
2024-04-30T05:10:01.322Z,4.90
2024-04-30T05:12:48.288Z,5.90
2024-04-30T05:15:35.283Z,5.35
2024-04-30T05:18:15.645Z,5.68
2024-04-30T05:21:02.289Z,6.15
2024-04-30T05:23:42.618Z,6.10
2024-04-30T05:26:29.288Z,6.10
2024-04-30T05:29:09.633Z,6.22
2024-04-30T05:31:56.251Z,6.10
2024-04-30T05:34:43.450Z,6.40
2024-04-30T05:37:23.262Z,5.78
2024-04-30T05:40:10.396Z,6.55
2024-04-30T05:42:50.243Z,5.70
2024-04-30T05:45:37.263Z,5.70
2024-04-30T05:48:17.340Z,6.88
2024-04-30T05:51:04.243Z,5.80
2024-04-30T05:53:52.904Z,6.63
2024-04-30T05:56:41.210Z,6.70
2024-04-30T05:59:21.310Z,6.10
2024-04-30T06:02:08.203Z,6.15
2024-04-30T06:04:48.427Z,7.28
2024-04-30T06:07:35.271Z,6.90
2024-04-30T06:10:15.359Z,6.22
2024-04-30T06:13:02.319Z,6.70
2024-04-30T06:15:42.428Z,5.97
2024-04-30T06:18:29.251Z,5.72
2024-04-30T06:21:11.958Z,5.70
2024-04-30T06:23:59.223Z,7.10
2024-04-30T06:26:46.208Z,6.90
2024-04-30T06:29:26.580Z,6.57
2024-04-30T06:32:13.192Z,7.43
2024-04-30T06:34:53.705Z,5.70
2024-04-30T06:37:41.187Z,6.35
2024-04-30T06:40:26.441Z,6.10
2024-04-30T06:43:14.230Z,7.13
2024-04-30T06:45:54.616Z,5.50
2024-04-30T06:48:48.238Z,5.72
2024-04-30T06:51:35.246Z,5.07
2024-04-30T06:54:15.136Z,5.22
2024-04-30T06:57:02.312Z,5.63
2024-04-30T06:59:42.207Z,6.50
2024-04-30T07:02:23.327Z,4.72
2024-04-30T07:05:10.360Z,4.35
2024-04-30T07:07:50.522Z,4.90
2024-04-30T07:10:37.233Z,6.68
2024-04-30T07:13:24.246Z,5.97
2024-04-30T07:16:04.285Z,6.53
2024-04-30T07:18:44.668Z,9.15
2024-04-30T07:21:32.142Z,6.63
2024-04-30T07:24:12.449Z,5.88
2024-04-30T07:27:01.161Z,5.43
2024-04-30T07:29:41.484Z,6.10
2024-04-30T07:32:28.239Z,6.00
2024-04-30T07:35:08.524Z,5.80
2024-04-30T07:37:55.109Z,5.97
2024-04-30T07:40:42.257Z,4.53
2024-04-30T07:43:22.228Z,3.67
2024-04-30T07:46:02.556Z,5.25
2024-04-30T07:48:49.249Z,4.40
2024-04-30T07:51:36.252Z,4.38
2024-04-30T07:54:16.087Z,4.35
2024-04-30T07:57:03.085Z,3.00
2024-04-30T07:59:43.215Z,4.22
2024-04-30T08:13:51.802Z,3.53
2024-04-30T08:16:39.369Z,4.47
2024-04-30T08:19:19.961Z,4.75
2024-04-30T08:22:06.805Z,4.18
2024-04-30T08:24:46.843Z,3.88
2024-04-30T08:27:33.742Z,3.67
2024-04-30T08:30:21.743Z,3.92
2024-04-30T08:33:08.923Z,3.67
2024-04-30T08:35:49.747Z,4.03
2024-04-30T08:38:30.130Z,2.72
2024-04-30T08:41:20.798Z,3.28
2024-04-30T08:44:02.262Z,3.33
2024-04-30T08:46:50.806Z,3.08
2024-04-30T08:49:38.683Z,2.83
2024-04-30T08:52:34.805Z,3.05
2024-04-30T08:55:24.926Z,2.97
2024-04-30T08:58:04.820Z,2.83
2024-04-30T09:00:52.402Z,2.45
2024-04-30T09:03:33.752Z,3.10
2024-04-30T09:06:28.823Z,3.63
2024-04-30T09:09:22.712Z,4.10
2024-04-30T09:12:17.716Z,4.20
2024-04-30T09:14:58.092Z,4.07
2024-04-30T09:17:44.800Z,2.95
2024-04-30T09:20:25.206Z,2.35
2024-04-30T09:23:11.717Z,3.78
2024-04-30T09:25:52.087Z,3.80
2024-04-30T09:28:38.813Z,3.65
2024-04-30T09:31:25.814Z,3.45
2024-04-30T09:34:06.715Z,3.25
2024-04-30T09:36:47.003Z,3.05
2024-04-30T09:39:35.674Z,3.70
2024-04-30T09:42:23.654Z,3.33
2024-04-30T09:45:12.682Z,3.58
2024-04-30T09:47:54.827Z,4.82
2024-04-30T09:50:45.669Z,4.80
2024-04-30T09:53:33.694Z,4.15
2024-04-30T09:56:13.733Z,3.17
2024-04-30T09:59:00.647Z,5.50
2024-04-30T10:01:41.784Z,2.95
2024-04-30T10:04:29.674Z,2.97
2024-04-30T10:07:11.856Z,2.97
2024-04-30T10:10:02.656Z,3.88
2024-04-30T10:12:56.662Z,2.67
2024-04-30T10:15:43.620Z,4.30
2024-04-30T10:18:34.670Z,2.78
2024-04-30T10:21:21.643Z,3.05
2024-04-30T10:24:02.184Z,4.63
2024-04-30T10:26:51.716Z,4.18
2024-04-30T10:29:31.747Z,3.63
2024-04-30T10:32:18.660Z,3.08
2024-04-30T10:35:02.711Z,2.60
2024-04-30T10:37:50.661Z,2.47
2024-04-30T10:40:40.699Z,3.15
2024-04-30T10:43:30.842Z,3.80
2024-04-30T10:46:22.667Z,4.20
2024-04-30T10:49:12.719Z,3.97
2024-04-30T10:51:52.601Z,2.58
2024-04-30T10:54:33.249Z,2.65
2024-04-30T10:57:20.626Z,2.38
2024-04-30T11:00:04.646Z,3.22
2024-04-30T11:02:52.609Z,2.70
2024-04-30T11:05:39.591Z,3.17
2024-04-30T11:08:20.230Z,2.72
2024-04-30T11:11:18.616Z,6.50
2024-04-30T11:14:05.639Z,7.28
2024-04-30T11:16:45.591Z,7.15
2024-04-30T11:19:25.958Z,7.63
2024-04-30T11:22:12.613Z,6.80
2024-04-30T11:24:52.972Z,7.97
2024-04-30T11:27:39.550Z,6.50
2024-04-30T11:30:19.926Z,5.97
2024-04-30T11:33:06.619Z,6.68
2024-04-30T11:35:53.663Z,6.78
2024-04-30T11:38:40.711Z,5.82
2024-04-30T11:41:20.651Z,5.75
2024-04-30T11:44:07.540Z,5.43
2024-04-30T11:46:47.650Z,5.32
2024-04-30T11:49:34.591Z,4.72
2024-04-30T11:52:14.681Z,4.80
2024-04-30T11:55:08.645Z,4.78
2024-04-30T11:57:48.926Z,4.80
2024-04-30T12:00:37.880Z,5.60
2024-04-30T12:03:26.883Z,5.50
2024-04-30T12:06:09.504Z,5.72
2024-04-30T12:08:49.951Z,5.20
2024-04-30T12:11:43.536Z,5.55
2024-04-30T12:14:30.628Z,4.10
2024-04-30T12:17:10.539Z,3.92
2024-04-30T12:19:57.488Z,3.28
2024-04-30T12:22:40.002Z,4.43
2024-04-30T12:25:26.483Z,4.63
2024-04-30T12:28:14.559Z,3.30
2024-04-30T12:31:01.552Z,3.78
2024-04-30T12:33:41.740Z,4.93
2024-04-30T12:36:28.453Z,3.80
2024-04-30T12:39:08.724Z,3.00
2024-04-30T12:41:55.561Z,3.30
2024-04-30T12:44:36.456Z,3.03
2024-04-30T12:47:23.529Z,2.10
2024-04-30T12:50:03.552Z,2.20
2024-04-30T12:52:50.731Z,2.85
2024-04-30T12:55:31.852Z,3.25
2024-04-30T12:58:20.493Z,2.40
2024-04-30T13:01:00.579Z,3.28
2024-04-30T13:03:47.472Z,2.95
2024-04-30T13:06:34.502Z,3.53
2024-04-30T13:09:15.427Z,3.00
2024-04-30T13:12:09.456Z,3.95
2024-04-30T13:14:56.400Z,3.33
2024-04-30T13:17:36.510Z,3.05
2024-04-30T13:20:23.415Z,3.15
2024-04-30T13:23:03.604Z,3.40
2024-04-30T13:25:50.468Z,3.10
2024-04-30T13:28:30.542Z,3.72
2024-04-30T13:31:17.465Z,3.40
2024-04-30T13:34:04.401Z,3.70
2024-04-30T13:36:44.914Z,4.43
2024-04-30T13:39:31.432Z,3.55
2024-04-30T13:42:18.394Z,4.07
2024-04-30T13:44:58.458Z,3.70
2024-04-30T13:47:45.428Z,4.45
2024-04-30T13:50:25.560Z,4.78
2024-04-30T13:53:12.436Z,6.35
2024-04-30T13:55:52.473Z,4.88
2024-04-30T13:58:39.486Z,4.72
2024-04-30T14:01:30.443Z,4.97
2024-04-30T14:04:10.980Z,4.60
2024-04-30T14:06:58.339Z,4.88
2024-04-30T14:09:38.735Z,4.63
2024-04-30T14:12:25.342Z,3.90
2024-04-30T14:15:12.319Z,4.28
2024-04-30T14:17:52.494Z,4.85
2024-04-30T14:20:39.328Z,5.50
2024-04-30T14:23:19.408Z,4.00
2024-04-30T14:26:08.386Z,4.10
2024-04-30T14:28:48.457Z,4.22
2024-04-30T14:31:35.394Z,3.92
2024-04-30T14:34:15.554Z,4.32
2024-04-30T14:37:02.325Z,4.13
2024-04-30T14:39:42.549Z,4.43
2024-04-30T14:42:30.373Z,6.35
2024-04-30T14:45:10.416Z,5.30
2024-04-30T14:47:57.381Z,6.55
2024-04-30T14:50:38.860Z,5.10
2024-04-30T14:53:26.583Z,4.45
2024-04-30T14:56:06.360Z,5.43
2024-04-30T14:58:53.274Z,5.28
2024-04-30T15:01:33.398Z,4.35
2024-04-30T15:04:20.361Z,5.35
2024-04-30T15:07:07.261Z,5.70
2024-04-30T15:10:00.448Z,4.93
2024-04-30T15:12:54.419Z,5.80
2024-04-30T15:15:41.232Z,7.43
2024-04-30T15:18:28.303Z,5.57
2024-04-30T15:21:15.450Z,4.80
2024-04-30T15:23:55.277Z,5.30
2024-04-30T15:26:39.137Z,4.88
2024-04-30T15:29:26.255Z,5.43
2024-04-30T15:32:06.874Z,5.18
2024-04-30T15:34:54.252Z,4.60
2024-04-30T15:37:41.450Z,5.30
2024-04-30T15:40:21.307Z,6.15
2024-04-30T15:43:01.554Z,5.10
2024-04-30T15:45:48.198Z,6.03
2024-04-30T15:48:28.760Z,5.88
2024-04-30T15:51:19.291Z,5.82
2024-04-30T15:53:59.551Z,6.22
2024-04-30T15:56:53.852Z,6.57
2024-04-30T15:59:46.521Z,7.75
2024-04-30T16:02:26.197Z,7.32
2024-04-30T16:05:08.478Z,6.45
2024-04-30T16:07:55.330Z,6.25
2024-04-30T16:10:35.648Z,6.55
2024-04-30T16:13:22.281Z,6.57
2024-04-30T16:16:16.534Z,5.70
2024-04-30T16:18:58.173Z,5.82
2024-04-30T16:21:38.824Z,5.60
2024-04-30T16:24:26.372Z,6.18
2024-04-30T16:27:06.541Z,5.30
2024-04-30T16:29:53.237Z,6.70
2024-04-30T16:32:33.638Z,5.75
2024-04-30T16:35:21.175Z,6.65
2024-04-30T16:38:01.591Z,5.97
2024-04-30T16:40:49.176Z,5.28
2024-04-30T16:43:29.466Z,5.80
2024-04-30T16:46:16.100Z,7.38
2024-04-30T16:49:05.925Z,6.50
2024-04-30T16:51:48.390Z,6.95
2024-04-30T16:54:36.178Z,6.18
2024-04-30T16:57:16.529Z,5.90
2024-04-30T17:00:03.175Z,6.82
2024-04-30T17:02:50.193Z,6.50
2024-04-30T17:05:37.144Z,6.35
2024-04-30T17:08:17.396Z,6.63
2024-04-30T17:11:06.187Z,5.80
2024-04-30T17:14:00.087Z,5.90
2024-04-30T17:16:47.287Z,6.10
2024-04-30T17:19:27.110Z,6.35
2024-04-30T17:22:14.129Z,6.38
2024-04-30T17:24:57.192Z,6.03
2024-04-30T17:27:44.104Z,5.78
2024-04-30T17:30:31.158Z,6.18
2024-04-30T17:33:18.138Z,7.30
2024-04-30T17:35:58.145Z,7.72
2024-04-30T17:38:45.028Z,7.45
2024-04-30T17:41:32.224Z,7.35
2024-04-30T17:44:19.025Z,7.10
2024-04-30T17:46:59.227Z,6.88
2024-04-30T17:49:46.060Z,8.20
2024-04-30T17:52:26.890Z,7.65
2024-04-30T17:55:15.045Z,8.15
2024-04-30T17:57:55.215Z,9.35
2024-04-30T18:00:42.079Z,9.32
2024-04-30T18:03:22.373Z,9.50
2024-04-30T18:06:09.057Z,10.45
2024-04-30T18:08:49.631Z,10.73
2024-04-30T18:11:37.092Z,10.10
2024-04-30T18:14:24.087Z,11.75
2024-04-30T18:17:11.067Z,10.23
2024-04-30T18:19:58.009Z,11.30
2024-04-30T18:22:47.020Z,11.40
2024-04-30T18:25:27.113Z,11.50
2024-04-30T18:28:13.991Z,11.57
2024-04-30T18:30:54.160Z,11.95
2024-04-30T18:33:41.054Z,11.63
2024-04-30T18:36:30.154Z,12.13
2024-04-30T18:39:15.146Z,12.13
2024-04-30T18:42:02.070Z,10.70
2024-04-30T18:44:42.648Z,10.30
2024-04-30T18:47:30.025Z,9.90
2024-04-30T18:50:10.360Z,9.55
2024-04-30T18:52:56.976Z,9.60
2024-04-30T18:55:44.112Z,9.32
2024-04-30T18:58:24.014Z,8.82
2024-04-30T19:01:04.761Z,8.18
2024-04-30T19:03:53.558Z,7.75
2024-04-30T19:06:34.394Z,6.90
2024-04-30T19:09:22.154Z,6.93
2024-04-30T19:12:09.059Z,6.40
2024-04-30T19:15:03.048Z,6.28
2024-04-30T19:17:43.429Z,6.03
2024-04-30T19:20:29.956Z,6.03
2024-04-30T19:23:16.959Z,5.47
2024-04-30T19:26:04.149Z,5.32
2024-04-30T19:28:44.292Z,5.00
2024-04-30T19:31:31.954Z,4.85
2024-04-30T19:34:14.789Z,4.78
2024-04-30T19:37:01.968Z,5.50
2024-04-30T19:39:49.120Z,4.60
2024-04-30T19:42:35.970Z,4.95
2024-04-30T19:45:23.210Z,5.30
2024-04-30T19:48:03.036Z,4.90
2024-04-30T19:50:56.871Z,4.60
2024-04-30T19:53:37.320Z,4.80
2024-04-30T20:11:37.566Z,4.72
2024-04-30T20:14:24.475Z,4.95
2024-04-30T20:17:04.577Z,4.88
2024-04-30T20:19:51.451Z,6.43
2024-04-30T20:22:39.557Z,5.70
2024-04-30T20:25:34.482Z,6.57
2024-04-30T20:28:14.836Z,5.97
2024-04-30T20:31:01.484Z,6.80
2024-04-30T20:33:48.527Z,6.10
2024-04-30T20:36:29.144Z,6.90
2024-04-30T20:39:16.432Z,7.00
2024-04-30T20:41:56.511Z,7.05
2024-04-30T20:44:43.428Z,7.13
2024-04-30T20:47:23.621Z,6.95
2024-04-30T20:50:10.405Z,6.90
2024-04-30T20:53:04.399Z,7.50
2024-04-30T20:55:51.506Z,7.40
2024-04-30T20:58:31.428Z,7.20
2024-04-30T21:01:16.913Z,7.25
2024-04-30T21:04:11.605Z,7.10
2024-04-30T21:06:58.466Z,7.57
2024-04-30T21:09:38.838Z,7.45
2024-04-30T21:12:25.409Z,7.50
2024-04-30T21:15:12.386Z,7.80
2024-04-30T21:17:59.444Z,6.90
2024-04-30T21:20:39.443Z,6.90
2024-04-30T21:23:28.414Z,7.97
2024-04-30T21:26:15.375Z,6.40
2024-04-30T21:29:02.406Z,9.15
2024-04-30T21:31:42.443Z,6.68
2024-04-30T21:34:29.408Z,6.75
2024-04-30T21:37:16.371Z,6.82
2024-04-30T21:40:03.431Z,6.15
2024-04-30T21:42:43.530Z,7.00
2024-04-30T21:45:30.364Z,6.78
2024-04-30T21:48:17.398Z,6.28
2024-04-30T21:51:04.354Z,6.90
2024-04-30T21:53:51.345Z,7.43
2024-04-30T21:56:38.486Z,6.68
2024-04-30T21:59:18.340Z,6.10
2024-04-30T22:02:05.361Z,6.40
2024-04-30T22:04:53.358Z,6.90
2024-04-30T22:07:40.314Z,7.30
2024-04-30T22:10:34.372Z,6.55
2024-04-30T22:13:21.323Z,6.50
2024-04-30T22:16:09.350Z,6.60
2024-04-30T22:18:56.355Z,7.15
2024-04-30T22:21:43.356Z,6.80
2024-04-30T22:24:30.298Z,7.20
2024-04-30T22:27:17.261Z,8.55
2024-04-30T22:30:05.792Z,8.73
2024-04-30T22:33:00.375Z,10.23
2024-04-30T22:35:40.378Z,8.88
2024-04-30T22:38:27.280Z,8.27
2024-04-30T22:41:14.317Z,8.48
2024-04-30T22:43:54.672Z,8.27
2024-04-30T22:46:41.264Z,8.93
2024-04-30T22:49:28.292Z,9.07
2024-04-30T22:52:08.373Z,9.18
2024-04-30T22:54:57.350Z,9.00
2024-04-30T22:57:44.306Z,8.45
2024-04-30T23:00:31.419Z,9.13
2024-04-30T23:03:11.327Z,8.30
2024-04-30T23:05:58.243Z,9.15
2024-04-30T23:08:38.354Z,9.90
2024-04-30T23:11:25.380Z,9.48
2024-04-30T23:14:12.223Z,9.10
2024-04-30T23:16:59.244Z,9.20
2024-04-30T23:19:46.255Z,9.32
2024-04-30T23:22:33.377Z,9.85
2024-04-30T23:25:13.223Z,11.50
2024-04-30T23:27:53.726Z,10.15
2024-04-30T23:30:41.261Z,8.90
2024-04-30T23:33:21.633Z,8.90
2024-04-30T23:36:08.231Z,9.48
2024-04-30T23:38:48.638Z,9.30
2024-04-30T23:41:35.227Z,9.48
2024-04-30T23:44:15.569Z,9.10
2024-04-30T23:47:02.246Z,9.35
2024-04-30T23:49:42.566Z,9.93
2024-04-30T23:52:29.220Z,9.85
2024-04-30T23:55:16.205Z,9.40
2024-04-30T23:58:03.200Z,9.05
